sensor_id;sensor_type;location;lat;lon;timestamp;temperature;humidity
33207;DHT22;19565;46.602;11.534;2023-05-10T00:00:17;16.10;99.90
33207;DHT22;19565;46.602;11.534;2023-05-10T00:02:45;16.10;99.90
33207;DHT22;19565;46.602;11.534;2023-05-10T00:05:14;16.10;99.90
33207;DHT22;19565;46.602;11.534;2023-05-10T00:07:42;16.00;99.90
33207;DHT22;19565;46.602;11.534;2023-05-10T00:10:11;16.00;99.90
33207;DHT22;19565;46.602;11.534;2023-05-10T00:12:40;16.10;99.90
33207;DHT22;19565;46.602;11.534;2023-05-10T00:15:10;16.00;99.90
33207;DHT22;19565;46.602;11.534;2023-05-10T00:17:38;16.00;99.90
33207;DHT22;19565;46.602;11.534;2023-05-10T00:20:07;16.00;99.90
33207;DHT22;19565;46.602;11.534;2023-05-10T00:22:35;16.00;99.90
33207;DHT22;19565;46.602;11.534;2023-05-10T00:25:04;16.00;99.90
33207;DHT22;19565;46.602;11.534;2023-05-10T00:27:32;16.00;99.90
33207;DHT22;19565;46.602;11.534;2023-05-10T00:30:01;16.00;99.90
33207;DHT22;19565;46.602;11.534;2023-05-10T00:32:30;16.00;99.90
33207;DHT22;19565;46.602;11.534;2023-05-10T00:34:58;16.00;99.90
33207;DHT22;19565;46.602;11.534;2023-05-10T00:37:26;16.00;99.90
33207;DHT22;19565;46.602;11.534;2023-05-10T00:39:54;16.10;99.90
33207;DHT22;19565;46.602;11.534;2023-05-10T00:42:22;16.00;99.90
33207;DHT22;19565;46.602;11.534;2023-05-10T00:44:50;16.00;99.90
33207;DHT22;19565;46.602;11.534;2023-05-10T00:47:18;16.10;99.90
33207;DHT22;19565;46.602;11.534;2023-05-10T00:49:48;16.10;99.90
33207;DHT22;19565;46.602;11.534;2023-05-10T00:52:16;16.10;99.90
33207;DHT22;19565;46.602;11.534;2023-05-10T00:54:44;16.10;99.90
33207;DHT22;19565;46.602;11.534;2023-05-10T00:57:12;16.10;99.90
33207;DHT22;19565;46.602;11.534;2023-05-10T00:59:40;16.10;99.90
33207;DHT22;19565;46.602;11.534;2023-05-10T01:02:08;16.10;99.90
33207;DHT22;19565;46.602;11.534;2023-05-10T01:04:37;16.10;99.90
33207;DHT22;19565;46.602;11.534;2023-05-10T01:07:07;16.10;99.90
33207;DHT22;19565;46.602;11.534;2023-05-10T01:09:35;16.00;99.90
33207;DHT22;19565;46.602;11.534;2023-05-10T01:12:04;16.00;99.90
33207;DHT22;19565;46.602;11.534;2023-05-10T01:14:34;16.00;99.90
33207;DHT22;19565;46.602;11.534;2023-05-10T01:17:04;16.00;99.90
33207;DHT22;19565;46.602;11.534;2023-05-10T01:19:34;16.00;99.90
33207;DHT22;19565;46.602;11.534;2023-05-10T01:22:14;16.00;99.90
33207;DHT22;19565;46.602;11.534;2023-05-10T01:28:25;16.00;99.90
33207;DHT22;19565;46.602;11.534;2023-05-10T01:31:13;15.90;99.90
33207;DHT22;19565;46.602;11.534;2023-05-10T01:33:52;15.90;99.90
33207;DHT22;19565;46.602;11.534;2023-05-10T01:36:29;15.80;99.90
33207;DHT22;19565;46.602;11.534;2023-05-10T01:39:02;15.80;99.90
33207;DHT22;19565;46.602;11.534;2023-05-10T01:41:39;15.80;99.90
33207;DHT22;19565;46.602;11.534;2023-05-10T01:44:17;15.80;99.90
33207;DHT22;19565;46.602;11.534;2023-05-10T01:46:50;15.80;99.90
33207;DHT22;19565;46.602;11.534;2023-05-10T01:49:25;15.80;99.90
33207;DHT22;19565;46.602;11.534;2023-05-10T01:51:56;15.70;99.90
33207;DHT22;19565;46.602;11.534;2023-05-10T01:54:27;15.70;99.90
33207;DHT22;19565;46.602;11.534;2023-05-10T01:57:01;15.70;99.90
33207;DHT22;19565;46.602;11.534;2023-05-10T01:59:33;15.70;99.90
33207;DHT22;19565;46.602;11.534;2023-05-10T02:02:04;15.70;99.90
33207;DHT22;19565;46.602;11.534;2023-05-10T02:04:35;15.70;99.90
33207;DHT22;19565;46.602;11.534;2023-05-10T02:07:05;15.70;99.90
33207;DHT22;19565;46.602;11.534;2023-05-10T02:09:34;15.70;99.90
33207;DHT22;19565;46.602;11.534;2023-05-10T02:12:05;15.70;99.90
33207;DHT22;19565;46.602;11.534;2023-05-10T02:14:36;15.60;99.90
33207;DHT22;19565;46.602;11.534;2023-05-10T02:17:05;15.70;99.90
33207;DHT22;19565;46.602;11.534;2023-05-10T02:19:40;15.70;99.90
33207;DHT22;19565;46.602;11.534;2023-05-10T02:22:09;15.70;99.90
33207;DHT22;19565;46.602;11.534;2023-05-10T02:24:38;15.70;99.90
33207;DHT22;19565;46.602;11.534;2023-05-10T02:27:08;15.70;99.90
33207;DHT22;19565;46.602;11.534;2023-05-10T02:29:38;15.70;99.90
33207;DHT22;19565;46.602;11.534;2023-05-10T02:32:06;15.70;99.90
33207;DHT22;19565;46.602;11.534;2023-05-10T02:34:36;15.70;99.90
33207;DHT22;19565;46.602;11.534;2023-05-10T02:37:04;15.60;99.90
33207;DHT22;19565;46.602;11.534;2023-05-10T02:39:34;15.70;99.90
33207;DHT22;19565;46.602;11.534;2023-05-10T02:42:03;15.60;99.90
33207;DHT22;19565;46.602;11.534;2023-05-10T02:44:32;15.60;99.90
33207;DHT22;19565;46.602;11.534;2023-05-10T02:47:01;15.60;99.90
33207;DHT22;19565;46.602;11.534;2023-05-10T02:49:30;15.60;99.90
33207;DHT22;19565;46.602;11.534;2023-05-10T02:52:01;15.60;99.90
33207;DHT22;19565;46.602;11.534;2023-05-10T02:54:32;15.60;99.90
33207;DHT22;19565;46.602;11.534;2023-05-10T02:57:04;15.60;99.90
33207;DHT22;19565;46.602;11.534;2023-05-10T02:59:32;15.60;99.90
33207;DHT22;19565;46.602;11.534;2023-05-10T03:02:00;15.50;99.90
33207;DHT22;19565;46.602;11.534;2023-05-10T03:04:29;15.50;99.90
33207;DHT22;19565;46.602;11.534;2023-05-10T03:06:59;15.50;99.90
33207;DHT22;19565;46.602;11.534;2023-05-10T03:09:28;15.50;99.90
33207;DHT22;19565;46.602;11.534;2023-05-10T03:12:02;15.50;99.90
33207;DHT22;19565;46.602;11.534;2023-05-10T03:14:44;15.60;99.90
33207;DHT22;19565;46.602;11.534;2023-05-10T03:17:22;15.50;99.90
33207;DHT22;19565;46.602;11.534;2023-05-10T03:19:54;15.50;99.90
33207;DHT22;19565;46.602;11.534;2023-05-10T03:22:30;15.50;99.90
33207;DHT22;19565;46.602;11.534;2023-05-10T03:25:01;15.50;99.90
33207;DHT22;19565;46.602;11.534;2023-05-10T03:27:32;15.50;99.90
33207;DHT22;19565;46.602;11.534;2023-05-10T03:30:02;15.50;99.90
33207;DHT22;19565;46.602;11.534;2023-05-10T03:32:30;15.50;99.90
33207;DHT22;19565;46.602;11.534;2023-05-10T03:35:01;15.40;99.90
33207;DHT22;19565;46.602;11.534;2023-05-10T03:37:30;15.40;99.90
33207;DHT22;19565;46.602;11.534;2023-05-10T03:39:58;15.40;99.90
33207;DHT22;19565;46.602;11.534;2023-05-10T03:42:26;15.50;99.90
33207;DHT22;19565;46.602;11.534;2023-05-10T03:44:54;15.50;99.90
33207;DHT22;19565;46.602;11.534;2023-05-10T03:47:22;15.50;99.90
33207;DHT22;19565;46.602;11.534;2023-05-10T03:49:51;15.50;99.90
33207;DHT22;19565;46.602;11.534;2023-05-10T03:52:19;15.50;99.90
33207;DHT22;19565;46.602;11.534;2023-05-10T03:54:48;15.40;99.90
33207;DHT22;19565;46.602;11.534;2023-05-10T03:57:16;15.40;99.90
33207;DHT22;19565;46.602;11.534;2023-05-10T03:59:44;15.50;99.90
33207;DHT22;19565;46.602;11.534;2023-05-10T04:02:12;15.50;99.90
33207;DHT22;19565;46.602;11.534;2023-05-10T04:04:41;15.40;99.90
33207;DHT22;19565;46.602;11.534;2023-05-10T04:07:09;15.30;99.90
33207;DHT22;19565;46.602;11.534;2023-05-10T04:09:37;15.20;99.90
33207;DHT22;19565;46.602;11.534;2023-05-10T04:12:07;15.10;99.90
33207;DHT22;19565;46.602;11.534;2023-05-10T04:14:36;15.10;99.90
33207;DHT22;19565;46.602;11.534;2023-05-10T04:17:05;15.00;99.90
33207;DHT22;19565;46.602;11.534;2023-05-10T04:19:33;15.00;99.90
33207;DHT22;19565;46.602;11.534;2023-05-10T04:22:02;15.00;99.90
33207;DHT22;19565;46.602;11.534;2023-05-10T04:24:30;15.00;99.90
33207;DHT22;19565;46.602;11.534;2023-05-10T04:26:58;15.00;99.90
33207;DHT22;19565;46.602;11.534;2023-05-10T04:29:28;15.10;99.90
33207;DHT22;19565;46.602;11.534;2023-05-10T04:31:56;15.10;99.90
33207;DHT22;19565;46.602;11.534;2023-05-10T04:34:24;15.20;99.90
33207;DHT22;19565;46.602;11.534;2023-05-10T04:36:52;15.20;99.90
33207;DHT22;19565;46.602;11.534;2023-05-10T04:39:20;15.30;99.90
33207;DHT22;19565;46.602;11.534;2023-05-10T04:41:48;15.30;99.90
33207;DHT22;19565;46.602;11.534;2023-05-10T04:44:16;15.30;99.90
33207;DHT22;19565;46.602;11.534;2023-05-10T04:46:45;15.30;99.90
33207;DHT22;19565;46.602;11.534;2023-05-10T04:49:13;15.30;99.90
33207;DHT22;19565;46.602;11.534;2023-05-10T04:51:42;15.20;99.90
33207;DHT22;19565;46.602;11.534;2023-05-10T04:54:10;15.20;99.90
33207;DHT22;19565;46.602;11.534;2023-05-10T04:56:38;15.20;99.90
33207;DHT22;19565;46.602;11.534;2023-05-10T04:59:06;15.20;99.90
33207;DHT22;19565;46.602;11.534;2023-05-10T05:01:34;15.20;99.90
33207;DHT22;19565;46.602;11.534;2023-05-10T05:04:03;15.20;99.90
33207;DHT22;19565;46.602;11.534;2023-05-10T05:06:32;15.20;99.90
33207;DHT22;19565;46.602;11.534;2023-05-10T05:09:00;15.20;99.90
33207;DHT22;19565;46.602;11.534;2023-05-10T05:11:28;15.20;99.90
33207;DHT22;19565;46.602;11.534;2023-05-10T05:13:56;15.30;99.90
33207;DHT22;19565;46.602;11.534;2023-05-10T05:16:25;15.20;99.90
33207;DHT22;19565;46.602;11.534;2023-05-10T05:18:54;15.20;99.90
33207;DHT22;19565;46.602;11.534;2023-05-10T05:21:23;15.20;99.90
33207;DHT22;19565;46.602;11.534;2023-05-10T05:23:53;15.20;99.90
33207;DHT22;19565;46.602;11.534;2023-05-10T05:26:21;15.20;99.90
33207;DHT22;19565;46.602;11.534;2023-05-10T05:28:49;15.20;99.90
33207;DHT22;19565;46.602;11.534;2023-05-10T05:31:20;15.20;99.90
33207;DHT22;19565;46.602;11.534;2023-05-10T05:33:48;15.20;99.90
33207;DHT22;19565;46.602;11.534;2023-05-10T05:36:16;15.20;99.90
33207;DHT22;19565;46.602;11.534;2023-05-10T05:38:46;15.20;99.90
33207;DHT22;19565;46.602;11.534;2023-05-10T05:41:14;15.20;99.90
33207;DHT22;19565;46.602;11.534;2023-05-10T05:43:42;15.10;99.90
33207;DHT22;19565;46.602;11.534;2023-05-10T05:46:10;15.20;99.90
33207;DHT22;19565;46.602;11.534;2023-05-10T05:48:38;15.20;99.90
33207;DHT22;19565;46.602;11.534;2023-05-10T05:51:06;15.20;99.90
33207;DHT22;19565;46.602;11.534;2023-05-10T05:53:34;15.20;99.90
33207;DHT22;19565;46.602;11.534;2023-05-10T05:56:04;15.20;99.90
33207;DHT22;19565;46.602;11.534;2023-05-10T05:58:32;15.20;99.90
33207;DHT22;19565;46.602;11.534;2023-05-10T06:01:00;15.20;99.90
33207;DHT22;19565;46.602;11.534;2023-05-10T06:03:28;15.10;99.90
33207;DHT22;19565;46.602;11.534;2023-05-10T06:05:57;15.10;99.90
33207;DHT22;19565;46.602;11.534;2023-05-10T06:08:25;15.10;99.90
33207;DHT22;19565;46.602;11.534;2023-05-10T06:10:53;15.10;99.90
33207;DHT22;19565;46.602;11.534;2023-05-10T06:13:22;15.10;99.90
33207;DHT22;19565;46.602;11.534;2023-05-10T06:15:50;15.10;99.90
33207;DHT22;19565;46.602;11.534;2023-05-10T06:18:18;15.10;99.90
33207;DHT22;19565;46.602;11.534;2023-05-10T06:20:46;15.10;99.90
33207;DHT22;19565;46.602;11.534;2023-05-10T06:23:14;15.10;99.90
33207;DHT22;19565;46.602;11.534;2023-05-10T06:25:42;15.10;99.90
33207;DHT22;19565;46.602;11.534;2023-05-10T06:28:10;15.10;99.90
33207;DHT22;19565;46.602;11.534;2023-05-10T06:30:40;15.10;99.90
33207;DHT22;19565;46.602;11.534;2023-05-10T06:33:08;15.20;99.90
33207;DHT22;19565;46.602;11.534;2023-05-10T06:35:36;15.20;99.90
33207;DHT22;19565;46.602;11.534;2023-05-10T06:38:04;15.20;99.90
33207;DHT22;19565;46.602;11.534;2023-05-10T06:40:32;15.20;99.90
33207;DHT22;19565;46.602;11.534;2023-05-10T06:43:00;15.20;99.90
33207;DHT22;19565;46.602;11.534;2023-05-10T06:45:28;15.20;99.90
33207;DHT22;19565;46.602;11.534;2023-05-10T06:47:58;15.20;99.90
33207;DHT22;19565;46.602;11.534;2023-05-10T06:50:26;15.20;99.90
33207;DHT22;19565;46.602;11.534;2023-05-10T06:52:54;15.10;99.90
33207;DHT22;19565;46.602;11.534;2023-05-10T06:55:23;15.10;99.90
33207;DHT22;19565;46.602;11.534;2023-05-10T06:57:51;15.10;99.90
33207;DHT22;19565;46.602;11.534;2023-05-10T07:00:19;15.10;99.90
33207;DHT22;19565;46.602;11.534;2023-05-10T07:02:47;15.10;99.90
33207;DHT22;19565;46.602;11.534;2023-05-10T07:05:17;15.10;99.90
33207;DHT22;19565;46.602;11.534;2023-05-10T07:07:46;15.10;99.90
33207;DHT22;19565;46.602;11.534;2023-05-10T07:10:14;15.10;99.90
33207;DHT22;19565;46.602;11.534;2023-05-10T07:12:42;15.10;99.90
33207;DHT22;19565;46.602;11.534;2023-05-10T07:15:11;15.10;99.90
33207;DHT22;19565;46.602;11.534;2023-05-10T07:17:39;15.10;99.90
33207;DHT22;19565;46.602;11.534;2023-05-10T07:20:11;15.10;99.90
33207;DHT22;19565;46.602;11.534;2023-05-10T07:22:40;15.10;99.90
33207;DHT22;19565;46.602;11.534;2023-05-10T07:25:09;15.10;99.90
33207;DHT22;19565;46.602;11.534;2023-05-10T07:27:37;15.10;99.90
33207;DHT22;19565;46.602;11.534;2023-05-10T07:30:06;15.10;99.90
33207;DHT22;19565;46.602;11.534;2023-05-10T07:32:34;15.10;99.90
33207;DHT22;19565;46.602;11.534;2023-05-10T07:35:03;15.10;99.90
33207;DHT22;19565;46.602;11.534;2023-05-10T07:37:32;15.10;99.90
33207;DHT22;19565;46.602;11.534;2023-05-10T07:40:01;15.10;99.90
33207;DHT22;19565;46.602;11.534;2023-05-10T07:42:29;15.10;99.90
33207;DHT22;19565;46.602;11.534;2023-05-10T07:44:57;15.20;99.90
33207;DHT22;19565;46.602;11.534;2023-05-10T07:47:25;15.20;99.90
33207;DHT22;19565;46.602;11.534;2023-05-10T07:49:53;15.10;99.90
33207;DHT22;19565;46.602;11.534;2023-05-10T07:52:21;15.10;99.90
33207;DHT22;19565;46.602;11.534;2023-05-10T07:54:51;15.10;99.90
33207;DHT22;19565;46.602;11.534;2023-05-10T07:57:21;15.10;99.90
33207;DHT22;19565;46.602;11.534;2023-05-10T07:59:49;15.10;99.90
33207;DHT22;19565;46.602;11.534;2023-05-10T08:02:17;15.10;99.90
33207;DHT22;19565;46.602;11.534;2023-05-10T08:04:45;15.20;99.90
33207;DHT22;19565;46.602;11.534;2023-05-10T08:07:13;15.20;99.90
33207;DHT22;19565;46.602;11.534;2023-05-10T08:09:41;15.20;99.90
33207;DHT22;19565;46.602;11.534;2023-05-10T08:12:09;15.20;99.90
33207;DHT22;19565;46.602;11.534;2023-05-10T08:14:38;15.10;99.90
33207;DHT22;19565;46.602;11.534;2023-05-10T08:17:06;15.10;99.90
33207;DHT22;19565;46.602;11.534;2023-05-10T08:19:34;15.20;99.90
33207;DHT22;19565;46.602;11.534;2023-05-10T08:22:02;15.20;99.90
33207;DHT22;19565;46.602;11.534;2023-05-10T08:24:30;15.10;99.90
33207;DHT22;19565;46.602;11.534;2023-05-10T08:26:59;15.20;99.90
33207;DHT22;19565;46.602;11.534;2023-05-10T08:29:27;15.10;99.90
33207;DHT22;19565;46.602;11.534;2023-05-10T08:32:02;15.10;99.90
33207;DHT22;19565;46.602;11.534;2023-05-10T08:34:30;15.10;99.90
33207;DHT22;19565;46.602;11.534;2023-05-10T08:36:58;15.10;99.90
33207;DHT22;19565;46.602;11.534;2023-05-10T08:39:26;15.20;99.90
33207;DHT22;19565;46.602;11.534;2023-05-10T08:42:02;15.20;99.90
33207;DHT22;19565;46.602;11.534;2023-05-10T08:44:32;15.20;99.90
33207;DHT22;19565;46.602;11.534;2023-05-10T08:47:05;15.20;99.90
33207;DHT22;19565;46.602;11.534;2023-05-10T08:49:34;15.20;99.90
33207;DHT22;19565;46.602;11.534;2023-05-10T08:52:04;15.20;99.90
33207;DHT22;19565;46.602;11.534;2023-05-10T08:54:32;15.10;99.90
33207;DHT22;19565;46.602;11.534;2023-05-10T08:57:01;15.20;99.90
33207;DHT22;19565;46.602;11.534;2023-05-10T08:59:30;15.20;99.90
33207;DHT22;19565;46.602;11.534;2023-05-10T09:01:58;15.10;99.90
33207;DHT22;19565;46.602;11.534;2023-05-10T09:04:28;15.10;99.90
33207;DHT22;19565;46.602;11.534;2023-05-10T09:06:57;15.20;99.90
33207;DHT22;19565;46.602;11.534;2023-05-10T09:09:25;15.10;99.90
33207;DHT22;19565;46.602;11.534;2023-05-10T09:11:54;15.20;99.90
33207;DHT22;19565;46.602;11.534;2023-05-10T09:14:23;15.20;99.90
33207;DHT22;19565;46.602;11.534;2023-05-10T09:16:52;15.20;99.90
33207;DHT22;19565;46.602;11.534;2023-05-10T09:19:21;15.20;99.90
33207;DHT22;19565;46.602;11.534;2023-05-10T09:21:51;15.10;99.90
33207;DHT22;19565;46.602;11.534;2023-05-10T09:24:19;15.10;99.90
33207;DHT22;19565;46.602;11.534;2023-05-10T09:26:48;15.10;99.90
33207;DHT22;19565;46.602;11.534;2023-05-10T09:29:16;15.10;99.90
33207;DHT22;19565;46.602;11.534;2023-05-10T09:31:46;15.10;99.90
33207;DHT22;19565;46.602;11.534;2023-05-10T09:34:18;15.10;99.90
33207;DHT22;19565;46.602;11.534;2023-05-10T09:36:53;15.20;99.90
33207;DHT22;19565;46.602;11.534;2023-05-10T09:39:21;15.20;99.90
33207;DHT22;19565;46.602;11.534;2023-05-10T09:41:58;15.10;99.90
33207;DHT22;19565;46.602;11.534;2023-05-10T09:44:27;15.00;99.90
33207;DHT22;19565;46.602;11.534;2023-05-10T09:46:55;14.90;99.90
33207;DHT22;19565;46.602;11.534;2023-05-10T09:49:23;15.00;99.90
33207;DHT22;19565;46.602;11.534;2023-05-10T09:52:01;15.00;99.90
33207;DHT22;19565;46.602;11.534;2023-05-10T09:54:30;15.10;99.90
33207;DHT22;19565;46.602;11.534;2023-05-10T09:56:58;15.10;99.90
33207;DHT22;19565;46.602;11.534;2023-05-10T09:59:28;15.10;99.90
33207;DHT22;19565;46.602;11.534;2023-05-10T10:01:56;15.10;99.90
33207;DHT22;19565;46.602;11.534;2023-05-10T10:04:25;15.20;99.90
33207;DHT22;19565;46.602;11.534;2023-05-10T10:07:02;15.10;99.90
33207;DHT22;19565;46.602;11.534;2023-05-10T10:09:31;15.20;99.90
33207;DHT22;19565;46.602;11.534;2023-05-10T10:11:59;15.00;99.90
33207;DHT22;19565;46.602;11.534;2023-05-10T10:14:28;14.80;99.90
33207;DHT22;19565;46.602;11.534;2023-05-10T10:16:56;14.80;99.90
33207;DHT22;19565;46.602;11.534;2023-05-10T10:19:35;14.60;99.90
33207;DHT22;19565;46.602;11.534;2023-05-10T10:22:05;14.50;99.90
33207;DHT22;19565;46.602;11.534;2023-05-10T10:24:33;14.20;99.90
33207;DHT22;19565;46.602;11.534;2023-05-10T10:27:07;14.20;99.90
33207;DHT22;19565;46.602;11.534;2023-05-10T10:29:41;14.20;99.90
33207;DHT22;19565;46.602;11.534;2023-05-10T10:32:21;14.30;99.90
33207;DHT22;19565;46.602;11.534;2023-05-10T10:34:54;14.50;99.90
33207;DHT22;19565;46.602;11.534;2023-05-10T10:37:24;14.60;99.90
33207;DHT22;19565;46.602;11.534;2023-05-10T10:40:28;14.60;99.90
33207;DHT22;19565;46.602;11.534;2023-05-10T10:43:22;14.50;99.90
33207;DHT22;19565;46.602;11.534;2023-05-10T10:46:11;14.50;99.90
33207;DHT22;19565;46.602;11.534;2023-05-10T10:48:41;14.40;99.90
33207;DHT22;19565;46.602;11.534;2023-05-10T10:51:10;14.50;99.90
33207;DHT22;19565;46.602;11.534;2023-05-10T10:53:40;14.60;99.90
33207;DHT22;19565;46.602;11.534;2023-05-10T10:56:10;14.70;99.90
33207;DHT22;19565;46.602;11.534;2023-05-10T10:58:40;14.90;99.90
33207;DHT22;19565;46.602;11.534;2023-05-10T11:01:13;14.90;99.90
33207;DHT22;19565;46.602;11.534;2023-05-10T11:06:38;15.00;99.90
33207;DHT22;19565;46.602;11.534;2023-05-10T11:09:09;14.90;99.90
33207;DHT22;19565;46.602;11.534;2023-05-10T11:11:49;14.90;99.90
33207;DHT22;19565;46.602;11.534;2023-05-10T11:14:20;14.70;99.90
33207;DHT22;19565;46.602;11.534;2023-05-10T11:16:48;14.70;99.90
33207;DHT22;19565;46.602;11.534;2023-05-10T11:19:17;14.60;99.90
33207;DHT22;19565;46.602;11.534;2023-05-10T11:21:47;14.60;99.90
33207;DHT22;19565;46.602;11.534;2023-05-10T11:24:18;14.70;99.90
33207;DHT22;19565;46.602;11.534;2023-05-10T11:26:49;14.60;99.90
33207;DHT22;19565;46.602;11.534;2023-05-10T11:29:18;14.60;99.90
33207;DHT22;19565;46.602;11.534;2023-05-10T11:31:47;14.60;99.90
33207;DHT22;19565;46.602;11.534;2023-05-10T11:34:25;14.40;99.90
33207;DHT22;19565;46.602;11.534;2023-05-10T11:36:54;14.30;99.90
33207;DHT22;19565;46.602;11.534;2023-05-10T11:39:27;14.40;99.90
33207;DHT22;19565;46.602;11.534;2023-05-10T11:41:56;14.30;99.90
33207;DHT22;19565;46.602;11.534;2023-05-10T11:44:29;14.40;99.90
33207;DHT22;19565;46.602;11.534;2023-05-10T11:46:58;14.50;99.90
33207;DHT22;19565;46.602;11.534;2023-05-10T11:49:27;14.40;99.90
33207;DHT22;19565;46.602;11.534;2023-05-10T11:52:04;14.50;99.90
33207;DHT22;19565;46.602;11.534;2023-05-10T11:54:33;14.50;99.90
33207;DHT22;19565;46.602;11.534;2023-05-10T11:57:03;14.50;99.90
33207;DHT22;19565;46.602;11.534;2023-05-10T11:59:31;14.40;99.90
33207;DHT22;19565;46.602;11.534;2023-05-10T12:01:59;14.30;99.90
33207;DHT22;19565;46.602;11.534;2023-05-10T12:04:27;14.30;99.90
33207;DHT22;19565;46.602;11.534;2023-05-10T12:06:56;14.30;99.90
33207;DHT22;19565;46.602;11.534;2023-05-10T12:09:24;14.20;99.90
33207;DHT22;19565;46.602;11.534;2023-05-10T12:11:56;14.20;99.90
33207;DHT22;19565;46.602;11.534;2023-05-10T12:14:24;14.20;99.90
33207;DHT22;19565;46.602;11.534;2023-05-10T12:16:52;14.20;99.90
33207;DHT22;19565;46.602;11.534;2023-05-10T12:19:21;14.10;99.90
33207;DHT22;19565;46.602;11.534;2023-05-10T12:21:49;14.20;99.90
33207;DHT22;19565;46.602;11.534;2023-05-10T12:24:17;14.30;99.90
33207;DHT22;19565;46.602;11.534;2023-05-10T12:26:45;14.20;99.90
33207;DHT22;19565;46.602;11.534;2023-05-10T12:29:18;14.00;99.90
33207;DHT22;19565;46.602;11.534;2023-05-10T12:31:51;13.90;99.90
33207;DHT22;19565;46.602;11.534;2023-05-10T12:34:24;14.00;99.90
33207;DHT22;19565;46.602;11.534;2023-05-10T12:36:52;14.10;99.90
33207;DHT22;19565;46.602;11.534;2023-05-10T12:39:20;14.00;99.90
33207;DHT22;19565;46.602;11.534;2023-05-10T12:41:48;13.90;99.90
33207;DHT22;19565;46.602;11.534;2023-05-10T12:44:20;14.00;99.90
33207;DHT22;19565;46.602;11.534;2023-05-10T12:46:48;14.10;99.90
33207;DHT22;19565;46.602;11.534;2023-05-10T12:49:16;14.10;99.90
33207;DHT22;19565;46.602;11.534;2023-05-10T12:51:45;14.10;99.90
33207;DHT22;19565;46.602;11.534;2023-05-10T12:54:13;14.00;99.90
33207;DHT22;19565;46.602;11.534;2023-05-10T12:56:42;14.00;99.90
33207;DHT22;19565;46.602;11.534;2023-05-10T12:59:10;14.10;99.90
33207;DHT22;19565;46.602;11.534;2023-05-10T13:01:40;14.10;99.90
33207;DHT22;19565;46.602;11.534;2023-05-10T13:04:08;14.20;99.90
33207;DHT22;19565;46.602;11.534;2023-05-10T13:06:36;14.30;99.90
33207;DHT22;19565;46.602;11.534;2023-05-10T13:09:04;14.30;99.90
33207;DHT22;19565;46.602;11.534;2023-05-10T13:11:32;14.30;99.90
33207;DHT22;19565;46.602;11.534;2023-05-10T13:14:00;14.10;99.90
33207;DHT22;19565;46.602;11.534;2023-05-10T13:16:29;14.30;99.90
33207;DHT22;19565;46.602;11.534;2023-05-10T13:18:59;14.40;99.90
33207;DHT22;19565;46.602;11.534;2023-05-10T13:21:27;14.50;99.90
33207;DHT22;19565;46.602;11.534;2023-05-10T13:23:55;14.50;99.90
33207;DHT22;19565;46.602;11.534;2023-05-10T13:26:23;14.50;99.90
33207;DHT22;19565;46.602;11.534;2023-05-10T13:28:52;14.60;99.90
33207;DHT22;19565;46.602;11.534;2023-05-10T13:31:22;14.60;99.90
33207;DHT22;19565;46.602;11.534;2023-05-10T13:33:50;14.60;99.90
33207;DHT22;19565;46.602;11.534;2023-05-10T13:36:19;14.60;99.90
33207;DHT22;19565;46.602;11.534;2023-05-10T13:38:47;14.60;99.90
33207;DHT22;19565;46.602;11.534;2023-05-10T13:41:15;14.60;99.90
33207;DHT22;19565;46.602;11.534;2023-05-10T13:43:44;14.70;99.90
33207;DHT22;19565;46.602;11.534;2023-05-10T13:46:12;14.80;99.90
33207;DHT22;19565;46.602;11.534;2023-05-10T13:48:40;14.90;99.90
33207;DHT22;19565;46.602;11.534;2023-05-10T13:51:08;14.90;99.90
33207;DHT22;19565;46.602;11.534;2023-05-10T13:53:37;15.00;99.90
33207;DHT22;19565;46.602;11.534;2023-05-10T13:56:06;15.00;99.90
33207;DHT22;19565;46.602;11.534;2023-05-10T13:58:34;15.00;99.90
33207;DHT22;19565;46.602;11.534;2023-05-10T14:01:03;14.80;99.90
33207;DHT22;19565;46.602;11.534;2023-05-10T14:03:31;14.80;99.90
33207;DHT22;19565;46.602;11.534;2023-05-10T14:05:59;14.80;99.90
33207;DHT22;19565;46.602;11.534;2023-05-10T14:08:27;14.90;99.90
33207;DHT22;19565;46.602;11.534;2023-05-10T14:10:57;14.90;99.90
33207;DHT22;19565;46.602;11.534;2023-05-10T14:13:25;14.90;99.90
33207;DHT22;19565;46.602;11.534;2023-05-10T14:15:53;14.90;99.90
33207;DHT22;19565;46.602;11.534;2023-05-10T14:18:22;14.90;99.90
33207;DHT22;19565;46.602;11.534;2023-05-10T14:20:50;14.90;99.90
33207;DHT22;19565;46.602;11.534;2023-05-10T14:23:18;14.90;99.90
33207;DHT22;19565;46.602;11.534;2023-05-10T14:25:50;14.80;99.90
33207;DHT22;19565;46.602;11.534;2023-05-10T14:28:20;14.80;99.90
33207;DHT22;19565;46.602;11.534;2023-05-10T14:30:49;14.90;99.90
33207;DHT22;19565;46.602;11.534;2023-05-10T14:33:17;14.90;99.90
33207;DHT22;19565;46.602;11.534;2023-05-10T14:35:45;14.90;99.90
33207;DHT22;19565;46.602;11.534;2023-05-10T14:38:14;14.90;99.90
33207;DHT22;19565;46.602;11.534;2023-05-10T14:40:42;14.80;99.90
33207;DHT22;19565;46.602;11.534;2023-05-10T14:43:10;14.70;99.90
33207;DHT22;19565;46.602;11.534;2023-05-10T14:45:40;14.70;99.90
33207;DHT22;19565;46.602;11.534;2023-05-10T14:48:08;14.70;99.90
33207;DHT22;19565;46.602;11.534;2023-05-10T14:50:38;14.60;99.90
33207;DHT22;19565;46.602;11.534;2023-05-10T14:53:06;14.60;99.90
33207;DHT22;19565;46.602;11.534;2023-05-10T14:55:37;14.60;99.90
33207;DHT22;19565;46.602;11.534;2023-05-10T14:58:05;14.60;99.90
33207;DHT22;19565;46.602;11.534;2023-05-10T15:00:33;14.50;99.90
33207;DHT22;19565;46.602;11.534;2023-05-10T15:03:03;14.50;99.90
33207;DHT22;19565;46.602;11.534;2023-05-10T15:05:31;14.40;99.90
33207;DHT22;19565;46.602;11.534;2023-05-10T15:08:00;14.40;99.90
33207;DHT22;19565;46.602;11.534;2023-05-10T15:10:28;14.40;99.90
33207;DHT22;19565;46.602;11.534;2023-05-10T15:12:59;14.40;99.90
33207;DHT22;19565;46.602;11.534;2023-05-10T15:15:27;14.40;99.90
33207;DHT22;19565;46.602;11.534;2023-05-10T15:17:55;14.40;99.90
33207;DHT22;19565;46.602;11.534;2023-05-10T15:20:25;14.30;99.90
33207;DHT22;19565;46.602;11.534;2023-05-10T15:22:53;14.40;99.90
33207;DHT22;19565;46.602;11.534;2023-05-10T15:25:22;14.40;99.90
33207;DHT22;19565;46.602;11.534;2023-05-10T15:27:50;14.30;99.90
33207;DHT22;19565;46.602;11.534;2023-05-10T15:30:18;14.30;99.90
33207;DHT22;19565;46.602;11.534;2023-05-10T15:32:46;14.30;99.90
33207;DHT22;19565;46.602;11.534;2023-05-10T15:35:14;14.30;99.90